RCH231 KNPA-KNFL
Flight info
| Callsign | RCH231 |
|---|---|
| Flight time | N/A |
| Altitude | 28000 |
| Route | SJI EIC J20 IRW J98 MMB ALS/N0490F300 MLF J58 ILC J198 MVA |
| Aircraft | B752/M-SDE2E3FGHIJ3J4J7RWXY/LB1 |
Departure
| Time | N/A |
|---|---|
| Airport | Naval Air Station Pensacola Forrest Sherman Field (KNPA) |
Arrival
| Time | 2026-05-05 01:38 |
|---|---|
| Airport | Fallon Naval Air Station (KNFL) |
| Time | Latitude | Longitude | Altitude | Speed | Heading |
|---|---|---|---|---|---|
| 2026-05-04 23:03 | 35.87488 | -98.77977 | 27642 ft | 397 kts | 296° |
| 2026-05-04 23:03 | 35.88369 | -98.80002 | 27637 ft | 397 kts | 296° |
| 2026-05-04 23:03 | 35.89233 | -98.81995 | 27626 ft | 397 kts | 296° |
| 2026-05-04 23:03 | 35.90969 | -98.86010 | 27631 ft | 397 kts | 296° |
| 2026-05-04 23:04 | 35.91829 | -98.88002 | 27627 ft | 396 kts | 296° |
| 2026-05-04 23:04 | 35.93548 | -98.91995 | 27612 ft | 396 kts | 296° |
| 2026-05-04 23:04 | 35.94842 | -98.94996 | 27621 ft | 396 kts | 296° |
| 2026-05-04 23:04 | 35.95698 | -98.96985 | 27624 ft | 396 kts | 296° |
| 2026-05-04 23:05 | 35.96987 | -98.99986 | 27641 ft | 396 kts | 296° |
| 2026-05-04 23:05 | 35.98275 | -99.02993 | 27648 ft | 395 kts | 296° |
| 2026-05-04 23:05 | 35.99561 | -99.05992 | 27648 ft | 395 kts | 296° |
| 2026-05-04 23:05 | 36.00849 | -99.08987 | 27636 ft | 395 kts | 296° |
| 2026-05-04 23:06 | 36.02137 | -99.11996 | 27625 ft | 396 kts | 296° |
| 2026-05-04 23:06 | 36.03428 | -99.15008 | 27628 ft | 397 kts | 296° |
| 2026-05-04 23:06 | 36.04717 | -99.18020 | 27639 ft | 397 kts | 296° |
| 2026-05-04 23:06 | 36.06004 | -99.21036 | 27650 ft | 397 kts | 296° |
| 2026-05-04 23:07 | 36.07292 | -99.24056 | 27639 ft | 397 kts | 296° |
| 2026-05-04 23:07 | 36.08580 | -99.27076 | 27628 ft | 397 kts | 296° |
| 2026-05-04 23:07 | 36.09871 | -99.30093 | 27638 ft | 397 kts | 296° |
| 2026-05-04 23:07 | 36.11164 | -99.33107 | 27637 ft | 397 kts | 296° |
| 2026-05-04 23:08 | 36.12445 | -99.36085 | 27609 ft | 397 kts | 296° |
| 2026-05-04 23:08 | 36.13734 | -99.39102 | 27648 ft | 396 kts | 296° |
| 2026-05-04 23:08 | 36.15020 | -99.42119 | 27670 ft | 396 kts | 296° |
| 2026-05-04 23:08 | 36.16299 | -99.45137 | 27655 ft | 396 kts | 296° |
| 2026-05-04 23:09 | 36.17583 | -99.48163 | 27641 ft | 395 kts | 296° |
| 2026-05-04 23:09 | 36.18858 | -99.51175 | 27656 ft | 395 kts | 296° |
| 2026-05-04 23:09 | 36.20133 | -99.54189 | 27640 ft | 395 kts | 296° |
| 2026-05-04 23:09 | 36.21408 | -99.57205 | 27625 ft | 395 kts | 296° |
| 2026-05-04 23:10 | 36.22679 | -99.60220 | 27624 ft | 394 kts | 295° |
| 2026-05-04 23:10 | 36.23949 | -99.63230 | 27624 ft | 394 kts | 296° |
| 2026-05-04 23:10 | 36.25217 | -99.66241 | 27613 ft | 394 kts | 295° |
| 2026-05-04 23:10 | 36.26484 | -99.69252 | 27633 ft | 393 kts | 295° |
| 2026-05-04 23:11 | 36.27735 | -99.72227 | 27637 ft | 394 kts | 295° |
| 2026-05-04 23:11 | 36.28998 | -99.75233 | 27617 ft | 393 kts | 295° |
| 2026-05-04 23:11 | 36.30264 | -99.78243 | 27607 ft | 393 kts | 295° |
| 2026-05-04 23:11 | 36.31527 | -99.81249 | 27607 ft | 393 kts | 295° |
| 2026-05-04 23:12 | 36.32790 | -99.84265 | 27616 ft | 393 kts | 295° |
| 2026-05-04 23:12 | 36.34048 | -99.87273 | 27618 ft | 393 kts | 295° |
| 2026-05-04 23:12 | 36.35082 | -99.90402 | 27613 ft | 392 kts | 287° |
| 2026-05-04 23:12 | 36.35739 | -99.93647 | 27622 ft | 393 kts | 283° |
| 2026-05-04 23:13 | 36.36317 | -99.96957 | 27620 ft | 393 kts | 283° |
| 2026-05-04 23:13 | 36.36899 | -100.00268 | 27605 ft | 392 kts | 283° |
| 2026-05-04 23:13 | 36.37498 | -100.03574 | 27611 ft | 392 kts | 283° |
| 2026-05-04 23:13 | 36.38110 | -100.06873 | 27620 ft | 392 kts | 283° |
| 2026-05-04 23:14 | 36.38728 | -100.10167 | 27619 ft | 392 kts | 283° |
| 2026-05-04 23:14 | 36.39351 | -100.13456 | 27621 ft | 391 kts | 283° |
| 2026-05-04 23:14 | 36.39983 | -100.16741 | 27615 ft | 391 kts | 284° |
| 2026-05-04 23:14 | 36.40614 | -100.20020 | 27638 ft | 390 kts | 283° |
| 2026-05-04 23:15 | 36.41246 | -100.23313 | 27643 ft | 392 kts | 283° |
| 2026-05-04 23:15 | 36.41877 | -100.26600 | 27634 ft | 391 kts | 283° |
| 2026-05-04 23:15 | 36.42501 | -100.29849 | 27641 ft | 392 kts | 283° |
| 2026-05-04 23:15 | 36.43136 | -100.33134 | 27636 ft | 392 kts | 284° |
| 2026-05-04 23:16 | 36.43330 | -100.34132 | 27638 ft | 391 kts | 284° |
| 2026-05-04 23:17 | 36.43562 | -100.35330 | 27615 ft | 385 kts | 284° |
| 2026-05-04 23:17 | 36.44179 | -100.38495 | 27591 ft | 379 kts | 283° |
| 2026-05-04 23:18 | 36.44795 | -100.41666 | 27634 ft | 385 kts | 283° |
| 2026-05-04 23:18 | 36.45423 | -100.44912 | 27640 ft | 388 kts | 283° |
| 2026-05-04 23:18 | 36.46048 | -100.48173 | 27643 ft | 389 kts | 283° |
| 2026-05-04 23:18 | 36.46672 | -100.51443 | 27653 ft | 389 kts | 283° |
| 2026-05-04 23:19 | 36.47295 | -100.54725 | 27665 ft | 390 kts | 283° |
| 2026-05-04 23:19 | 36.47917 | -100.58009 | 27651 ft | 391 kts | 283° |
| 2026-05-04 23:19 | 36.48544 | -100.61306 | 27637 ft | 391 kts | 283° |
| 2026-05-04 23:19 | 36.48820 | -100.62770 | 27637 ft | 391 kts | 283° |
| 2026-05-04 23:20 | 36.49438 | -100.66066 | 27651 ft | 392 kts | 283° |
| 2026-05-04 23:20 | 36.50057 | -100.69362 | 27651 ft | 392 kts | 283° |
| 2026-05-04 23:20 | 36.50679 | -100.72665 | 27655 ft | 392 kts | 283° |
| 2026-05-04 23:20 | 36.51301 | -100.75963 | 27626 ft | 393 kts | 283° |
| 2026-05-04 23:21 | 36.51921 | -100.79258 | 27642 ft | 392 kts | 283° |
| 2026-05-04 23:21 | 36.52544 | -100.82570 | 27649 ft | 393 kts | 283° |
| 2026-05-04 23:21 | 36.53166 | -100.85877 | 27665 ft | 393 kts | 283° |
| 2026-05-04 23:21 | 36.53789 | -100.89188 | 27664 ft | 393 kts | 283° |
| 2026-05-04 23:22 | 36.54414 | -100.92500 | 27647 ft | 393 kts | 283° |
| 2026-05-04 23:22 | 36.55038 | -100.95809 | 27648 ft | 393 kts | 283° |
| 2026-05-04 23:22 | 36.55658 | -100.99121 | 27643 ft | 393 kts | 283° |
| 2026-05-04 23:22 | 36.56273 | -101.02434 | 27651 ft | 393 kts | 282° |
| 2026-05-04 23:23 | 36.56889 | -101.05749 | 27659 ft | 393 kts | 282° |
| 2026-05-04 23:23 | 36.57505 | -101.09068 | 27657 ft | 393 kts | 282° |
| 2026-05-04 23:23 | 36.58117 | -101.12385 | 27661 ft | 393 kts | 282° |
| 2026-05-04 23:23 | 36.58721 | -101.15659 | 27655 ft | 393 kts | 282° |
| 2026-05-04 23:24 | 36.59327 | -101.18973 | 27650 ft | 393 kts | 282° |
| 2026-05-04 23:24 | 36.59938 | -101.22288 | 27670 ft | 393 kts | 282° |
| 2026-05-04 23:24 | 36.60550 | -101.25608 | 27654 ft | 393 kts | 282° |
| 2026-05-04 23:24 | 36.61161 | -101.28931 | 27648 ft | 393 kts | 282° |
| 2026-05-04 23:25 | 36.61774 | -101.32249 | 27657 ft | 393 kts | 282° |
| 2026-05-04 23:25 | 36.62387 | -101.35565 | 27648 ft | 393 kts | 282° |
| 2026-05-04 23:25 | 36.62999 | -101.38880 | 27640 ft | 393 kts | 282° |
| 2026-05-04 23:25 | 36.63605 | -101.42198 | 27641 ft | 393 kts | 282° |
| 2026-05-04 23:26 | 36.64208 | -101.45515 | 27640 ft | 393 kts | 282° |
| 2026-05-04 23:26 | 36.64810 | -101.48832 | 27653 ft | 393 kts | 282° |
| 2026-05-04 23:26 | 36.65413 | -101.52154 | 27648 ft | 393 kts | 282° |
| 2026-05-04 23:26 | 36.66005 | -101.55425 | 27661 ft | 392 kts | 282° |
| 2026-05-04 23:27 | 36.66603 | -101.58736 | 27657 ft | 392 kts | 282° |
| 2026-05-04 23:27 | 36.67200 | -101.62052 | 27647 ft | 392 kts | 282° |
| 2026-05-04 23:27 | 36.67798 | -101.65372 | 27648 ft | 392 kts | 282° |
| 2026-05-04 23:27 | 36.68393 | -101.68697 | 27649 ft | 392 kts | 282° |
| 2026-05-04 23:28 | 36.68985 | -101.72011 | 27671 ft | 391 kts | 282° |
| 2026-05-04 23:28 | 36.69579 | -101.75332 | 27671 ft | 392 kts | 282° |
| 2026-05-04 23:28 | 36.70171 | -101.78642 | 27661 ft | 392 kts | 282° |
| 2026-05-04 23:28 | 36.70756 | -101.81919 | 27661 ft | 392 kts | 282° |
| 2026-05-04 23:29 | 36.71350 | -101.85232 | 27671 ft | 392 kts | 282° |
| 2026-05-04 23:29 | 36.71941 | -101.88554 | 27671 ft | 392 kts | 282° |
| 2026-05-04 23:29 | 36.72527 | -101.91867 | 27677 ft | 392 kts | 282° |
| 2026-05-04 23:29 | 36.73114 | -101.95182 | 27684 ft | 392 kts | 282° |
| 2026-05-04 23:30 | 36.73700 | -101.98495 | 27693 ft | 392 kts | 282° |
| 2026-05-04 23:30 | 36.74289 | -102.01818 | 27690 ft | 392 kts | 281° |
| 2026-05-04 23:30 | 36.74878 | -102.05094 | 27694 ft | 391 kts | 281° |
| 2026-05-04 23:30 | 36.75469 | -102.08405 | 27706 ft | 391 kts | 281° |
| 2026-05-04 23:31 | 36.76055 | -102.11724 | 27710 ft | 391 kts | 281° |
| 2026-05-04 23:31 | 36.76639 | -102.15040 | 27715 ft | 391 kts | 281° |
| 2026-05-04 23:31 | 36.77220 | -102.18353 | 27705 ft | 391 kts | 281° |
| 2026-05-04 23:31 | 36.77802 | -102.21671 | 27700 ft | 391 kts | 281° |
| 2026-05-04 23:32 | 36.78381 | -102.24995 | 27722 ft | 391 kts | 281° |
| 2026-05-04 23:32 | 36.78960 | -102.28317 | 27731 ft | 392 kts | 281° |
| 2026-05-04 23:32 | 36.79537 | -102.31642 | 27715 ft | 392 kts | 281° |
| 2026-05-04 23:32 | 36.80114 | -102.34957 | 27712 ft | 392 kts | 281° |
| 2026-05-04 23:33 | 36.80692 | -102.38292 | 27699 ft | 392 kts | 281° |
| 2026-05-04 23:33 | 36.81266 | -102.41617 | 27693 ft | 392 kts | 281° |
| 2026-05-04 23:33 | 36.81839 | -102.44944 | 27701 ft | 392 kts | 281° |
| 2026-05-04 23:33 | 36.82410 | -102.48271 | 27713 ft | 392 kts | 281° |
| 2026-05-04 23:34 | 36.82982 | -102.51602 | 27714 ft | 392 kts | 281° |
| 2026-05-04 23:34 | 36.83557 | -102.54934 | 27729 ft | 392 kts | 281° |
| 2026-05-04 23:34 | 36.84128 | -102.58262 | 27732 ft | 392 kts | 281° |
| 2026-05-04 23:34 | 36.84700 | -102.61597 | 27745 ft | 393 kts | 281° |
| 2026-05-04 23:35 | 36.85269 | -102.64932 | 27739 ft | 393 kts | 281° |
| 2026-05-04 23:35 | 36.85840 | -102.68272 | 27735 ft | 393 kts | 281° |
| 2026-05-04 23:35 | 36.86411 | -102.71603 | 27727 ft | 393 kts | 281° |
| 2026-05-04 23:35 | 36.86986 | -102.74935 | 27739 ft | 393 kts | 281° |
| 2026-05-04 23:36 | 36.87566 | -102.78278 | 27736 ft | 393 kts | 281° |
| 2026-05-04 23:36 | 36.88129 | -102.81570 | 27727 ft | 393 kts | 281° |
| 2026-05-04 23:36 | 36.88697 | -102.84913 | 27743 ft | 393 kts | 281° |
| 2026-05-04 23:36 | 36.89262 | -102.88256 | 27725 ft | 393 kts | 281° |
| 2026-05-04 23:37 | 36.89824 | -102.91598 | 27744 ft | 393 kts | 281° |
| 2026-05-04 23:37 | 36.90385 | -102.94942 | 27757 ft | 393 kts | 281° |
| 2026-05-04 23:37 | 36.90949 | -102.98288 | 27752 ft | 393 kts | 281° |
| 2026-05-04 23:37 | 36.91518 | -103.01627 | 27729 ft | 393 kts | 281° |
| 2026-05-04 23:38 | 36.92072 | -103.04970 | 27737 ft | 393 kts | 280° |
| 2026-05-04 23:38 | 36.92624 | -103.08322 | 27724 ft | 393 kts | 281° |
| 2026-05-04 23:38 | 36.93182 | -103.11676 | 27718 ft | 394 kts | 280° |
| 2026-05-04 23:38 | 36.93744 | -103.15030 | 27712 ft | 394 kts | 281° |
| 2026-05-04 23:39 | 36.94292 | -103.18334 | 27723 ft | 392 kts | 281° |
| 2026-05-04 23:39 | 36.94848 | -103.21689 | 27732 ft | 394 kts | 280° |
| 2026-05-04 23:39 | 36.95396 | -103.25035 | 27797 ft | 393 kts | 281° |
| 2026-05-04 23:39 | 36.95949 | -103.28388 | 27826 ft | 393 kts | 280° |
| 2026-05-04 23:40 | 36.96497 | -103.31735 | 27809 ft | 394 kts | 280° |
| 2026-05-04 23:40 | 36.97050 | -103.35090 | 27783 ft | 393 kts | 281° |
| 2026-05-04 23:40 | 36.97604 | -103.38442 | 27773 ft | 393 kts | 281° |
| 2026-05-04 23:40 | 36.98157 | -103.41786 | 27806 ft | 393 kts | 280° |
| 2026-05-04 23:41 | 36.98708 | -103.45136 | 27796 ft | 393 kts | 280° |
| 2026-05-04 23:41 | 36.99253 | -103.48490 | 27764 ft | 393 kts | 280° |
| 2026-05-04 23:41 | 36.99800 | -103.51835 | 27785 ft | 392 kts | 280° |
| 2026-05-04 23:41 | 37.00343 | -103.55145 | 27825 ft | 393 kts | 281° |
| 2026-05-04 23:42 | 37.00895 | -103.58500 | 27835 ft | 393 kts | 280° |
| 2026-05-04 23:42 | 37.01447 | -103.61851 | 27804 ft | 393 kts | 280° |
| 2026-05-04 23:42 | 37.01993 | -103.65196 | 27837 ft | 392 kts | 281° |
| 2026-05-04 23:42 | 37.02538 | -103.68552 | 27796 ft | 393 kts | 280° |
| 2026-05-04 23:43 | 37.03075 | -103.71909 | 27758 ft | 393 kts | 280° |
| 2026-05-04 23:43 | 37.03616 | -103.75263 | 27744 ft | 392 kts | 280° |
| 2026-05-04 23:43 | 37.04152 | -103.78606 | 27808 ft | 391 kts | 280° |
| 2026-05-04 23:43 | 37.04683 | -103.81903 | 27816 ft | 393 kts | 280° |
| 2026-05-04 23:44 | 37.05227 | -103.85304 | 27818 ft | 392 kts | 280° |
| 2026-05-04 23:44 | 37.05755 | -103.88609 | 27818 ft | 393 kts | 280° |
| 2026-05-04 23:44 | 37.06290 | -103.91964 | 27759 ft | 393 kts | 280° |
| 2026-05-04 23:44 | 37.06827 | -103.95318 | 27765 ft | 392 kts | 280° |
| 2026-05-04 23:45 | 37.07358 | -103.98677 | 27762 ft | 392 kts | 280° |
| 2026-05-04 23:45 | 37.07893 | -104.02040 | 27840 ft | 392 kts | 279° |
| 2026-05-04 23:45 | 37.08431 | -104.05397 | 27828 ft | 393 kts | 280° |
| 2026-05-04 23:45 | 37.08967 | -104.08761 | 27800 ft | 393 kts | 280° |
| 2026-05-04 23:46 | 37.09490 | -104.12068 | 27788 ft | 392 kts | 279° |
| 2026-05-04 23:46 | 37.10025 | -104.15419 | 27822 ft | 392 kts | 280° |
| 2026-05-04 23:46 | 37.10466 | -104.18211 | 27826 ft | 392 kts | 279° |
| 2026-05-04 23:46 | 37.10906 | -104.21013 | 27826 ft | 392 kts | 279° |
| 2026-05-04 23:47 | 37.11432 | -104.24373 | 27777 ft | 394 kts | 279° |
| 2026-05-04 23:47 | 37.11957 | -104.27733 | 27745 ft | 393 kts | 280° |
| 2026-05-04 23:47 | 37.12482 | -104.31089 | 27805 ft | 392 kts | 279° |
| 2026-05-04 23:47 | 37.13007 | -104.34447 | 27837 ft | 393 kts | 279° |
| 2026-05-04 23:48 | 37.13520 | -104.37822 | 27790 ft | 393 kts | 279° |
| 2026-05-04 23:48 | 37.14040 | -104.41173 | 27839 ft | 393 kts | 279° |
| 2026-05-04 23:48 | 37.14558 | -104.44538 | 27800 ft | 393 kts | 279° |
| 2026-05-04 23:48 | 37.15077 | -104.47895 | 27813 ft | 392 kts | 279° |
| 2026-05-04 23:49 | 37.15594 | -104.51248 | 27875 ft | 392 kts | 279° |
| 2026-05-04 23:49 | 37.16108 | -104.54605 | 27826 ft | 393 kts | 279° |
| 2026-05-04 23:49 | 37.16626 | -104.57965 | 27812 ft | 391 kts | 279° |
| 2026-05-04 23:49 | 37.17138 | -104.61289 | 27831 ft | 392 kts | 279° |
| 2026-05-04 23:50 | 37.17652 | -104.64646 | 27819 ft | 392 kts | 279° |
| 2026-05-04 23:50 | 37.18161 | -104.67992 | 27894 ft | 391 kts | 279° |
| 2026-05-04 23:50 | 37.18668 | -104.71345 | 27932 ft | 392 kts | 279° |
| 2026-05-04 23:50 | 37.19176 | -104.74701 | 27930 ft | 392 kts | 279° |
| 2026-05-04 23:51 | 37.19516 | -104.76922 | 27923 ft | 392 kts | 279° |
| 2026-05-04 23:51 | 37.20026 | -104.80279 | 27970 ft | 391 kts | 279° |
| 2026-05-04 23:51 | 37.20534 | -104.83628 | 27985 ft | 391 kts | 279° |
| 2026-05-04 23:51 | 37.21036 | -104.86987 | 27961 ft | 391 kts | 279° |
| 2026-05-04 23:52 | 37.21696 | -104.91427 | 27977 ft | 390 kts | 279° |
| 2026-05-04 23:52 | 37.22036 | -104.93689 | 28030 ft | 390 kts | 279° |
| 2026-05-04 23:52 | 37.23035 | -105.00342 | 28068 ft | 390 kts | 279° |
| 2026-05-04 23:53 | 37.24038 | -105.07030 | 28077 ft | 390 kts | 279° |
| 2026-05-04 23:53 | 37.25042 | -105.13717 | 28091 ft | 389 kts | 279° |
| 2026-05-04 23:54 | 37.26041 | -105.20403 | 28032 ft | 389 kts | 279° |
| 2026-05-04 23:54 | 37.27023 | -105.27088 | 28107 ft | 389 kts | 279° |
| 2026-05-04 23:55 | 37.28001 | -105.33726 | 28065 ft | 389 kts | 279° |
| 2026-05-04 23:56 | 37.29465 | -105.43749 | 28090 ft | 389 kts | 279° |
| 2026-05-04 23:56 | 37.30436 | -105.50436 | 28072 ft | 389 kts | 279° |
| 2026-05-04 23:57 | 37.31400 | -105.57120 | 28031 ft | 389 kts | 279° |
| 2026-05-04 23:57 | 37.32366 | -105.63807 | 28009 ft | 389 kts | 278° |
| 2026-05-04 23:57 | 37.32848 | -105.67153 | 27995 ft | 389 kts | 279° |
| 2026-05-04 23:58 | 37.33328 | -105.70499 | 27980 ft | 389 kts | 278° |
| 2026-05-04 23:58 | 37.33798 | -105.73799 | 27987 ft | 389 kts | 279° |
| 2026-05-04 23:58 | 37.34273 | -105.77150 | 27969 ft | 389 kts | 278° |
| 2026-05-04 23:58 | 37.34748 | -105.80497 | 27960 ft | 389 kts | 278° |
| 2026-05-04 23:59 | 37.35272 | -105.83834 | 27966 ft | 389 kts | 280° |
| 2026-05-04 23:59 | 37.35848 | -105.87157 | 27965 ft | 389 kts | 281° |
| 2026-05-04 23:59 | 37.36435 | -105.90480 | 27945 ft | 390 kts | 281° |
| 2026-05-04 23:59 | 37.37022 | -105.93802 | 27941 ft | 390 kts | 281° |
| 2026-05-05 00:00 | 37.37601 | -105.97131 | 27932 ft | 389 kts | 281° |
| 2026-05-05 00:00 | 37.37981 | -105.99332 | 27937 ft | 389 kts | 280° |
| 2026-05-05 00:00 | 37.38743 | -106.03787 | 27944 ft | 389 kts | 280° |
| 2026-05-05 00:00 | 37.39311 | -106.07116 | 27953 ft | 389 kts | 280° |
| 2026-05-05 00:01 | 37.39878 | -106.10450 | 27968 ft | 389 kts | 280° |
| 2026-05-05 00:01 | 37.40447 | -106.13780 | 27986 ft | 389 kts | 280° |
| 2026-05-05 00:01 | 37.41014 | -106.17114 | 28009 ft | 390 kts | 280° |
| 2026-05-05 00:02 | 37.42127 | -106.23732 | 28029 ft | 389 kts | 280° |
| 2026-05-05 00:02 | 37.43246 | -106.30396 | 28044 ft | 388 kts | 280° |
| 2026-05-05 00:03 | 37.44365 | -106.37050 | 28081 ft | 389 kts | 280° |
| 2026-05-05 00:03 | 37.45313 | -106.42703 | 28109 ft | 388 kts | 280° |
| 2026-05-05 00:04 | 37.46430 | -106.49360 | 28141 ft | 388 kts | 280° |
| 2026-05-05 00:04 | 37.47552 | -106.56010 | 28186 ft | 388 kts | 279° |
| 2026-05-05 00:05 | 37.48656 | -106.62622 | 28203 ft | 388 kts | 279° |
| 2026-05-05 00:05 | 37.49757 | -106.69289 | 28207 ft | 388 kts | 279° |
| 2026-05-05 00:06 | 37.50853 | -106.75951 | 28220 ft | 389 kts | 279° |
| 2026-05-05 00:06 | 37.51942 | -106.82630 | 28236 ft | 389 kts | 279° |
| 2026-05-05 00:07 | 37.53027 | -106.89297 | 28216 ft | 389 kts | 279° |
| 2026-05-05 00:07 | 37.54113 | -106.95979 | 28207 ft | 389 kts | 279° |
| 2026-05-05 00:08 | 37.55196 | -107.02671 | 28173 ft | 390 kts | 279° |
| 2026-05-05 00:08 | 37.56282 | -107.09373 | 28108 ft | 391 kts | 279° |
| 2026-05-05 00:09 | 37.57369 | -107.16073 | 28050 ft | 390 kts | 279° |
| 2026-05-05 00:09 | 37.58458 | -107.22753 | 28051 ft | 391 kts | 279° |
| 2026-05-05 00:10 | 37.59536 | -107.29483 | 28058 ft | 392 kts | 279° |
| 2026-05-05 00:10 | 37.60607 | -107.36214 | 28050 ft | 392 kts | 279° |
| 2026-05-05 00:11 | 37.61673 | -107.42963 | 28046 ft | 392 kts | 279° |
| 2026-05-05 00:11 | 37.62738 | -107.49722 | 28095 ft | 394 kts | 277° |
| 2026-05-05 00:12 | 37.63651 | -107.55449 | 28074 ft | 395 kts | 277° |
| 2026-05-05 00:12 | 37.64713 | -107.62261 | 28041 ft | 396 kts | 277° |
| 2026-05-05 00:13 | 37.65784 | -107.69095 | 28049 ft | 397 kts | 277° |
| 2026-05-05 00:13 | 37.66342 | -107.72702 | 28065 ft | 396 kts | 277° |
| 2026-05-05 00:14 | 37.67398 | -107.79484 | 28103 ft | 396 kts | 277° |
| 2026-05-05 00:14 | 37.68451 | -107.86317 | 28104 ft | 396 kts | 277° |
| 2026-05-05 00:15 | 37.69496 | -107.93183 | 28075 ft | 398 kts | 277° |
| 2026-05-05 00:15 | 37.70548 | -108.00053 | 28011 ft | 398 kts | 277° |
| 2026-05-05 00:16 | 37.71598 | -108.06909 | 28044 ft | 398 kts | 277° |
| 2026-05-05 00:16 | 37.72628 | -108.13732 | 28059 ft | 398 kts | 277° |
| 2026-05-05 00:17 | 37.73675 | -108.20602 | 28016 ft | 398 kts | 277° |
| 2026-05-05 00:17 | 37.74192 | -108.24040 | 27967 ft | 398 kts | 277° |
| 2026-05-05 00:17 | 37.74708 | -108.27479 | 28004 ft | 398 kts | 277° |
| 2026-05-05 00:17 | 37.75232 | -108.30919 | 27992 ft | 399 kts | 277° |
| 2026-05-05 00:18 | 37.75751 | -108.34358 | 28006 ft | 398 kts | 277° |
| 2026-05-05 00:18 | 37.76271 | -108.37797 | 27999 ft | 398 kts | 277° |
| 2026-05-05 00:18 | 37.76791 | -108.41236 | 28016 ft | 399 kts | 277° |
| 2026-05-05 00:18 | 37.77311 | -108.44689 | 27991 ft | 399 kts | 277° |
| 2026-05-05 00:19 | 37.77826 | -108.48136 | 27973 ft | 399 kts | 276° |
| 2026-05-05 00:19 | 37.78340 | -108.51588 | 27922 ft | 400 kts | 277° |
| 2026-05-05 00:19 | 37.78843 | -108.54989 | 27973 ft | 398 kts | 276° |
| 2026-05-05 00:19 | 37.79346 | -108.58442 | 27981 ft | 399 kts | 276° |
| 2026-05-05 00:20 | 37.79852 | -108.61891 | 28005 ft | 399 kts | 276° |
| 2026-05-05 00:20 | 37.80363 | -108.65356 | 27998 ft | 400 kts | 276° |
| 2026-05-05 00:20 | 37.80877 | -108.68811 | 28010 ft | 400 kts | 276° |
| 2026-05-05 00:21 | 37.81889 | -108.75719 | 28076 ft | 399 kts | 276° |
| 2026-05-05 00:21 | 37.82892 | -108.82652 | 27996 ft | 399 kts | 276° |
| 2026-05-05 00:21 | 37.83390 | -108.86064 | 27958 ft | 400 kts | 276° |
| 2026-05-05 00:22 | 37.83891 | -108.89523 | 27960 ft | 400 kts | 276° |
| 2026-05-05 00:22 | 37.84389 | -108.92996 | 27886 ft | 400 kts | 276° |
| 2026-05-05 00:22 | 37.84889 | -108.96444 | 27983 ft | 399 kts | 276° |
| 2026-05-05 00:22 | 37.85130 | -108.98099 | 27984 ft | 400 kts | 276° |
| 2026-05-05 00:23 | 37.85473 | -109.00464 | 27995 ft | 401 kts | 276° |
| 2026-05-05 00:23 | 37.85974 | -109.03934 | 27986 ft | 400 kts | 276° |
| 2026-05-05 00:23 | 37.86480 | -109.07401 | 27952 ft | 401 kts | 276° |
| 2026-05-05 00:23 | 37.86982 | -109.10867 | 27943 ft | 401 kts | 276° |
| 2026-05-05 00:24 | 37.87483 | -109.14348 | 27918 ft | 401 kts | 276° |
| 2026-05-05 00:24 | 37.87972 | -109.17817 | 27950 ft | 401 kts | 276° |
| 2026-05-05 00:24 | 37.88455 | -109.21292 | 27946 ft | 402 kts | 276° |
| 2026-05-05 00:24 | 37.88945 | -109.24742 | 27865 ft | 402 kts | 276° |
| 2026-05-05 00:25 | 37.89439 | -109.28225 | 27885 ft | 401 kts | 276° |
| 2026-05-05 00:25 | 37.89933 | -109.31710 | 27898 ft | 402 kts | 276° |
| 2026-05-05 00:25 | 37.90423 | -109.35196 | 27940 ft | 401 kts | 275° |
| 2026-05-05 00:25 | 37.90913 | -109.38680 | 27984 ft | 402 kts | 275° |
| 2026-05-05 00:26 | 37.91403 | -109.42168 | 27958 ft | 403 kts | 275° |
| 2026-05-05 00:26 | 37.91885 | -109.45670 | 27874 ft | 402 kts | 275° |
| 2026-05-05 00:26 | 37.92365 | -109.49105 | 27883 ft | 402 kts | 275° |
| 2026-05-05 00:26 | 37.92852 | -109.52600 | 27893 ft | 402 kts | 275° |
| 2026-05-05 00:27 | 37.93338 | -109.56083 | 27907 ft | 402 kts | 275° |
| 2026-05-05 00:27 | 37.93823 | -109.59574 | 27914 ft | 403 kts | 275° |
| 2026-05-05 00:27 | 37.94314 | -109.63067 | 27901 ft | 403 kts | 275° |
| 2026-05-05 00:27 | 37.94808 | -109.66565 | 27876 ft | 403 kts | 275° |
| 2026-05-05 00:28 | 37.95295 | -109.70065 | 27866 ft | 403 kts | 275° |
| 2026-05-05 00:28 | 37.95774 | -109.73565 | 27852 ft | 403 kts | 275° |
| 2026-05-05 00:28 | 37.96256 | -109.77068 | 27895 ft | 403 kts | 275° |
| 2026-05-05 00:28 | 37.96737 | -109.80571 | 27908 ft | 403 kts | 275° |
| 2026-05-05 00:29 | 37.97213 | -109.84067 | 27889 ft | 403 kts | 275° |
| 2026-05-05 00:29 | 37.97687 | -109.87534 | 27932 ft | 403 kts | 275° |
| 2026-05-05 00:29 | 37.98162 | -109.91035 | 27897 ft | 403 kts | 275° |
| 2026-05-05 00:29 | 37.98642 | -109.94544 | 27851 ft | 402 kts | 275° |
| 2026-05-05 00:30 | 37.99115 | -109.98038 | 27895 ft | 403 kts | 275° |
| 2026-05-05 00:30 | 37.99583 | -110.01544 | 27873 ft | 403 kts | 275° |
| 2026-05-05 00:30 | 38.00051 | -110.05048 | 27910 ft | 402 kts | 275° |
| 2026-05-05 00:30 | 38.00518 | -110.08553 | 27887 ft | 404 kts | 275° |
| 2026-05-05 00:31 | 38.00991 | -110.12069 | 27809 ft | 403 kts | 275° |
| 2026-05-05 00:31 | 38.01463 | -110.15568 | 27844 ft | 402 kts | 275° |
| 2026-05-05 00:31 | 38.01930 | -110.19071 | 27898 ft | 403 kts | 275° |
| 2026-05-05 00:31 | 38.02392 | -110.22579 | 27880 ft | 403 kts | 275° |
| 2026-05-05 00:32 | 38.02849 | -110.26046 | 27861 ft | 404 kts | 275° |
| 2026-05-05 00:32 | 38.03322 | -110.29564 | 27817 ft | 404 kts | 275° |
| 2026-05-05 00:32 | 38.03796 | -110.33083 | 27813 ft | 404 kts | 275° |
| 2026-05-05 00:32 | 38.04255 | -110.36598 | 27832 ft | 404 kts | 275° |
| 2026-05-05 00:33 | 38.04716 | -110.40122 | 27823 ft | 405 kts | 275° |
| 2026-05-05 00:33 | 38.05174 | -110.43637 | 27883 ft | 404 kts | 275° |
| 2026-05-05 00:33 | 38.05635 | -110.47161 | 27882 ft | 406 kts | 275° |
| 2026-05-05 00:33 | 38.06098 | -110.50698 | 27836 ft | 406 kts | 275° |
| 2026-05-05 00:34 | 38.06558 | -110.54227 | 27835 ft | 405 kts | 275° |
| 2026-05-05 00:34 | 38.07017 | -110.57762 | 27814 ft | 407 kts | 275° |
| 2026-05-05 00:34 | 38.07476 | -110.61308 | 27860 ft | 406 kts | 275° |
| 2026-05-05 00:34 | 38.07931 | -110.64847 | 27893 ft | 408 kts | 275° |
| 2026-05-05 00:35 | 38.08391 | -110.68400 | 27825 ft | 407 kts | 275° |
| 2026-05-05 00:35 | 38.08854 | -110.71949 | 27824 ft | 407 kts | 275° |
| 2026-05-05 00:35 | 38.09308 | -110.75501 | 27822 ft | 408 kts | 275° |
| 2026-05-05 00:35 | 38.09762 | -110.79065 | 27801 ft | 409 kts | 275° |
| 2026-05-05 00:36 | 38.10216 | -110.82627 | 27882 ft | 408 kts | 275° |
| 2026-05-05 00:36 | 38.10670 | -110.86189 | 27876 ft | 411 kts | 275° |
| 2026-05-05 00:36 | 38.11123 | -110.89731 | 27805 ft | 410 kts | 275° |
| 2026-05-05 00:36 | 38.11581 | -110.93302 | 27856 ft | 408 kts | 275° |
| 2026-05-05 00:37 | 38.12040 | -110.96871 | 27882 ft | 411 kts | 275° |
| 2026-05-05 00:37 | 38.12498 | -111.00449 | 27866 ft | 411 kts | 275° |
| 2026-05-05 00:37 | 38.12953 | -111.04035 | 27824 ft | 411 kts | 275° |
| 2026-05-05 00:37 | 38.13404 | -111.07618 | 27882 ft | 410 kts | 274° |
| 2026-05-05 00:38 | 38.13854 | -111.11209 | 27848 ft | 411 kts | 274° |
| 2026-05-05 00:38 | 38.13968 | -111.12127 | 27853 ft | 410 kts | 274° |
| 2026-05-05 00:38 | 38.14410 | -111.15713 | 27853 ft | 411 kts | 275° |
| 2026-05-05 00:38 | 38.15002 | -111.20473 | 27846 ft | 411 kts | 274° |
| 2026-05-05 00:39 | 38.15445 | -111.24063 | 27857 ft | 411 kts | 274° |
| 2026-05-05 00:39 | 38.15742 | -111.26484 | 27867 ft | 410 kts | 274° |
| 2026-05-05 00:39 | 38.16182 | -111.30069 | 27836 ft | 411 kts | 274° |
| 2026-05-05 00:39 | 38.16624 | -111.33649 | 27888 ft | 410 kts | 274° |
| 2026-05-05 00:40 | 38.17062 | -111.37237 | 27935 ft | 411 kts | 274° |
| 2026-05-05 00:40 | 38.17497 | -111.40788 | 27919 ft | 411 kts | 274° |
| 2026-05-05 00:40 | 38.17937 | -111.44375 | 27924 ft | 410 kts | 274° |
| 2026-05-05 00:40 | 38.18376 | -111.47954 | 27914 ft | 410 kts | 274° |
| 2026-05-05 00:41 | 38.18816 | -111.51540 | 27947 ft | 409 kts | 274° |
| 2026-05-05 00:41 | 38.19255 | -111.55121 | 27922 ft | 409 kts | 274° |
| 2026-05-05 00:41 | 38.19697 | -111.58687 | 28000 ft | 409 kts | 274° |
| 2026-05-05 00:41 | 38.20126 | -111.62261 | 27962 ft | 409 kts | 273° |
| 2026-05-05 00:42 | 38.20546 | -111.65835 | 27924 ft | 409 kts | 273° |
| 2026-05-05 00:42 | 38.20976 | -111.69412 | 27892 ft | 408 kts | 274° |
| 2026-05-05 00:42 | 38.21405 | -111.72978 | 27917 ft | 408 kts | 274° |
| 2026-05-05 00:42 | 38.21826 | -111.76516 | 27857 ft | 409 kts | 273° |
| 2026-05-05 00:43 | 38.22245 | -111.80081 | 27868 ft | 407 kts | 273° |
| 2026-05-05 00:43 | 38.22669 | -111.83646 | 27896 ft | 408 kts | 273° |
| 2026-05-05 00:43 | 38.23095 | -111.87212 | 27910 ft | 408 kts | 273° |
| 2026-05-05 00:43 | 38.23519 | -111.90777 | 27929 ft | 407 kts | 273° |
| 2026-05-05 00:44 | 38.23942 | -111.94350 | 27987 ft | 407 kts | 273° |
| 2026-05-05 00:44 | 38.24368 | -111.97931 | 27937 ft | 408 kts | 273° |
| 2026-05-05 00:44 | 38.24789 | -112.01493 | 27940 ft | 407 kts | 273° |
| 2026-05-05 00:44 | 38.25204 | -112.05004 | 27968 ft | 407 kts | 273° |
| 2026-05-05 00:45 | 38.25620 | -112.08571 | 27959 ft | 407 kts | 273° |
| 2026-05-05 00:45 | 38.26029 | -112.12142 | 27942 ft | 407 kts | 273° |
| 2026-05-05 00:45 | 38.26444 | -112.15707 | 27917 ft | 408 kts | 273° |
| 2026-05-05 00:45 | 38.26855 | -112.19278 | 27860 ft | 407 kts | 273° |
| 2026-05-05 00:46 | 38.27271 | -112.22846 | 27925 ft | 407 kts | 273° |
| 2026-05-05 00:46 | 38.27682 | -112.26419 | 27901 ft | 408 kts | 273° |
| 2026-05-05 00:46 | 38.28090 | -112.29994 | 27837 ft | 409 kts | 273° |
| 2026-05-05 00:46 | 38.28499 | -112.33581 | 27865 ft | 408 kts | 273° |
| 2026-05-05 00:47 | 38.28906 | -112.37120 | 27893 ft | 410 kts | 273° |
| 2026-05-05 00:47 | 38.29319 | -112.40712 | 27878 ft | 411 kts | 273° |
| 2026-05-05 00:47 | 38.29733 | -112.44304 | 27867 ft | 410 kts | 273° |
| 2026-05-05 00:47 | 38.30141 | -112.47905 | 27896 ft | 410 kts | 273° |
| 2026-05-05 00:48 | 38.30545 | -112.51508 | 27906 ft | 412 kts | 273° |
| 2026-05-05 00:48 | 38.30951 | -112.55127 | 27850 ft | 413 kts | 273° |
| 2026-05-05 00:48 | 38.31358 | -112.58744 | 27838 ft | 413 kts | 273° |
| 2026-05-05 00:48 | 38.31760 | -112.62374 | 27857 ft | 413 kts | 273° |
| 2026-05-05 00:49 | 38.32164 | -112.66001 | 27900 ft | 415 kts | 273° |
| 2026-05-05 00:49 | 38.32577 | -112.69646 | 27894 ft | 415 kts | 274° |
| 2026-05-05 00:49 | 38.32985 | -112.73281 | 27877 ft | 416 kts | 273° |
| 2026-05-05 00:49 | 38.33382 | -112.76933 | 27831 ft | 416 kts | 273° |
| 2026-05-05 00:50 | 38.33784 | -112.80599 | 27771 ft | 417 kts | 273° |
| 2026-05-05 00:50 | 38.34177 | -112.84215 | 27805 ft | 417 kts | 273° |
| 2026-05-05 00:50 | 38.34579 | -112.87884 | 27841 ft | 419 kts | 273° |
| 2026-05-05 00:50 | 38.34983 | -112.91563 | 27847 ft | 419 kts | 274° |
| 2026-05-05 00:51 | 38.35389 | -112.95254 | 27821 ft | 420 kts | 274° |
| 2026-05-05 00:51 | 38.35786 | -112.98938 | 27867 ft | 420 kts | 273° |
| 2026-05-05 00:51 | 38.36140 | -113.02636 | 27865 ft | 418 kts | 270° |
| 2026-05-05 00:51 | 38.36037 | -113.06322 | 27896 ft | 415 kts | 262° |
| 2026-05-05 00:52 | 38.35683 | -113.09989 | 27855 ft | 417 kts | 260° |
| 2026-05-05 00:52 | 38.35295 | -113.13646 | 27828 ft | 416 kts | 260° |
| 2026-05-05 00:52 | 38.34938 | -113.17304 | 27845 ft | 417 kts | 260° |
| 2026-05-05 00:52 | 38.34621 | -113.20980 | 27874 ft | 417 kts | 261° |
| 2026-05-05 00:53 | 38.34323 | -113.24652 | 27855 ft | 418 kts | 261° |
| 2026-05-05 00:53 | 38.34031 | -113.28346 | 27853 ft | 418 kts | 261° |
| 2026-05-05 00:53 | 38.33740 | -113.31986 | 27862 ft | 419 kts | 261° |
| 2026-05-05 00:53 | 38.33449 | -113.35675 | 27852 ft | 419 kts | 261° |
| 2026-05-05 00:54 | 38.33162 | -113.39371 | 27859 ft | 419 kts | 261° |
| 2026-05-05 00:54 | 38.32874 | -113.43066 | 27863 ft | 419 kts | 261° |
| 2026-05-05 00:54 | 38.32585 | -113.46761 | 27862 ft | 419 kts | 261° |
| 2026-05-05 00:54 | 38.32291 | -113.50458 | 27871 ft | 419 kts | 261° |
| 2026-05-05 00:55 | 38.31997 | -113.54156 | 27858 ft | 419 kts | 261° |
| 2026-05-05 00:55 | 38.31704 | -113.57850 | 27857 ft | 419 kts | 261° |
| 2026-05-05 00:55 | 38.31414 | -113.61545 | 27862 ft | 419 kts | 261° |
| 2026-05-05 00:55 | 38.31232 | -113.63863 | 27877 ft | 418 kts | 261° |
| 2026-05-05 00:56 | 38.30945 | -113.67553 | 27896 ft | 419 kts | 261° |
| 2026-05-05 00:56 | 38.30661 | -113.71201 | 27879 ft | 419 kts | 261° |
| 2026-05-05 00:56 | 38.30373 | -113.74889 | 27874 ft | 418 kts | 261° |
| 2026-05-05 00:56 | 38.30082 | -113.78582 | 27875 ft | 418 kts | 261° |
| 2026-05-05 00:57 | 38.29784 | -113.82266 | 27893 ft | 417 kts | 260° |
| 2026-05-05 00:57 | 38.29485 | -113.85943 | 27894 ft | 418 kts | 260° |
| 2026-05-05 00:57 | 38.29186 | -113.89627 | 27882 ft | 418 kts | 260° |
| 2026-05-05 00:57 | 38.28882 | -113.93308 | 27867 ft | 418 kts | 260° |
| 2026-05-05 00:58 | 38.28580 | -113.96978 | 27871 ft | 417 kts | 260° |
| 2026-05-05 00:58 | 38.28276 | -114.00651 | 27885 ft | 417 kts | 260° |
| 2026-05-05 00:58 | 38.27970 | -114.04325 | 27878 ft | 418 kts | 260° |
| 2026-05-05 00:58 | 38.27666 | -114.08008 | 27871 ft | 417 kts | 260° |
| 2026-05-05 00:59 | 38.27360 | -114.11639 | 27874 ft | 418 kts | 260° |
| 2026-05-05 00:59 | 38.27053 | -114.15316 | 27872 ft | 418 kts | 260° |
| 2026-05-05 00:59 | 38.26748 | -114.18990 | 27879 ft | 418 kts | 260° |
| 2026-05-05 00:59 | 38.26431 | -114.22717 | 27895 ft | 418 kts | 260° |
| 2026-05-05 01:00 | 38.26124 | -114.26345 | 27889 ft | 418 kts | 260° |
| 2026-05-05 01:00 | 38.25811 | -114.30035 | 27889 ft | 419 kts | 260° |
| 2026-05-05 01:00 | 38.25495 | -114.33727 | 27877 ft | 419 kts | 261° |
| 2026-05-05 01:00 | 38.25181 | -114.37412 | 27862 ft | 419 kts | 260° |
| 2026-05-05 01:01 | 38.25067 | -114.41124 | 27886 ft | 424 kts | 268° |
| 2026-05-05 01:01 | 38.25363 | -114.44876 | 27893 ft | 428 kts | 273° |
| 2026-05-05 01:01 | 38.25795 | -114.48630 | 27883 ft | 429 kts | 274° |
| 2026-05-05 01:01 | 38.26241 | -114.52379 | 27898 ft | 429 kts | 274° |
| 2026-05-05 01:02 | 38.26673 | -114.56148 | 27903 ft | 429 kts | 274° |
| 2026-05-05 01:02 | 38.27088 | -114.59917 | 27865 ft | 430 kts | 273° |
| 2026-05-05 01:02 | 38.27483 | -114.63686 | 27874 ft | 430 kts | 273° |
| 2026-05-05 01:02 | 38.27872 | -114.67461 | 27906 ft | 431 kts | 273° |
| 2026-05-05 01:03 | 38.28250 | -114.71201 | 27892 ft | 431 kts | 273° |
| 2026-05-05 01:03 | 38.28632 | -114.74993 | 27897 ft | 432 kts | 273° |
| 2026-05-05 01:03 | 38.29011 | -114.78795 | 27887 ft | 432 kts | 273° |
| 2026-05-05 01:03 | 38.29386 | -114.82601 | 27900 ft | 433 kts | 273° |
| 2026-05-05 01:04 | 38.29762 | -114.86410 | 27892 ft | 433 kts | 273° |
| 2026-05-05 01:04 | 38.30507 | -114.94031 | 27899 ft | 434 kts | 273° |
| 2026-05-05 01:04 | 38.30879 | -114.97857 | 27916 ft | 435 kts | 273° |
| 2026-05-05 01:05 | 38.31244 | -115.01635 | 27903 ft | 436 kts | 273° |
| 2026-05-05 01:05 | 38.31617 | -115.05467 | 27903 ft | 435 kts | 273° |
| 2026-05-05 01:05 | 38.31989 | -115.09302 | 27901 ft | 437 kts | 273° |
| 2026-05-05 01:05 | 38.32359 | -115.13142 | 27910 ft | 436 kts | 273° |
| 2026-05-05 01:06 | 38.32728 | -115.16982 | 27908 ft | 437 kts | 273° |
| 2026-05-05 01:06 | 38.33096 | -115.20829 | 27898 ft | 437 kts | 273° |
| 2026-05-05 01:06 | 38.33464 | -115.24676 | 27877 ft | 437 kts | 273° |
| 2026-05-05 01:06 | 38.33830 | -115.28514 | 27896 ft | 438 kts | 273° |
| 2026-05-05 01:07 | 38.34195 | -115.32370 | 27918 ft | 438 kts | 273° |
| 2026-05-05 01:07 | 38.34560 | -115.36235 | 27917 ft | 438 kts | 273° |
| 2026-05-05 01:07 | 38.34919 | -115.40084 | 27906 ft | 438 kts | 273° |
| 2026-05-05 01:07 | 38.35269 | -115.43902 | 27891 ft | 438 kts | 273° |
| 2026-05-05 01:08 | 38.35626 | -115.47759 | 27905 ft | 438 kts | 273° |
| 2026-05-05 01:08 | 38.35982 | -115.51619 | 27901 ft | 438 kts | 273° |
| 2026-05-05 01:08 | 38.36102 | -115.52925 | 27896 ft | 438 kts | 273° |
| 2026-05-05 01:09 | 38.37372 | -115.66889 | 27926 ft | 437 kts | 272° |
| 2026-05-05 01:09 | 38.37720 | -115.70744 | 27914 ft | 437 kts | 272° |
| 2026-05-05 01:09 | 38.38068 | -115.74591 | 27901 ft | 437 kts | 272° |
| 2026-05-05 01:10 | 38.38415 | -115.78439 | 27891 ft | 437 kts | 272° |
| 2026-05-05 01:10 | 38.38761 | -115.82292 | 27904 ft | 437 kts | 272° |
| 2026-05-05 01:10 | 38.39105 | -115.86136 | 27900 ft | 437 kts | 272° |
| 2026-05-05 01:10 | 38.39447 | -115.89988 | 27909 ft | 437 kts | 272° |
| 2026-05-05 01:11 | 38.39791 | -115.93846 | 27900 ft | 437 kts | 272° |
| 2026-05-05 01:11 | 38.40134 | -115.97689 | 27907 ft | 437 kts | 272° |
| 2026-05-05 01:11 | 38.40475 | -116.01532 | 27908 ft | 436 kts | 272° |
| 2026-05-05 01:11 | 38.40813 | -116.05383 | 27897 ft | 438 kts | 272° |
| 2026-05-05 01:12 | 38.41155 | -116.09245 | 27888 ft | 438 kts | 273° |
| 2026-05-05 01:12 | 38.41492 | -116.13063 | 27886 ft | 439 kts | 272° |
| 2026-05-05 01:12 | 38.41828 | -116.16930 | 27888 ft | 439 kts | 273° |
| 2026-05-05 01:12 | 38.42165 | -116.20801 | 27887 ft | 440 kts | 273° |
| 2026-05-05 01:13 | 38.42501 | -116.24676 | 27884 ft | 440 kts | 273° |
| 2026-05-05 01:13 | 38.42836 | -116.28558 | 27876 ft | 441 kts | 273° |
| 2026-05-05 01:13 | 38.43169 | -116.32440 | 27883 ft | 441 kts | 273° |
| 2026-05-05 01:13 | 38.43504 | -116.36338 | 27869 ft | 442 kts | 273° |
| 2026-05-05 01:14 | 38.43748 | -116.39210 | 27881 ft | 442 kts | 273° |
| 2026-05-05 01:14 | 38.44052 | -116.42757 | 27888 ft | 444 kts | 273° |
| 2026-05-05 01:14 | 38.44385 | -116.46677 | 27889 ft | 444 kts | 273° |
| 2026-05-05 01:14 | 38.44721 | -116.50597 | 27888 ft | 445 kts | 273° |
| 2026-05-05 01:15 | 38.45053 | -116.54524 | 27897 ft | 446 kts | 273° |
| 2026-05-05 01:15 | 38.45387 | -116.58463 | 27888 ft | 447 kts | 274° |
| 2026-05-05 01:15 | 38.45721 | -116.62414 | 27882 ft | 448 kts | 274° |
| 2026-05-05 01:15 | 38.46054 | -116.66378 | 27885 ft | 449 kts | 274° |
| 2026-05-05 01:16 | 38.46381 | -116.70344 | 27871 ft | 450 kts | 274° |
| 2026-05-05 01:16 | 38.46703 | -116.74324 | 27879 ft | 451 kts | 274° |
| 2026-05-05 01:16 | 38.47020 | -116.78317 | 27895 ft | 453 kts | 274° |
| 2026-05-05 01:16 | 38.47338 | -116.82328 | 27885 ft | 454 kts | 274° |
| 2026-05-05 01:17 | 38.47657 | -116.86279 | 27887 ft | 455 kts | 274° |
| 2026-05-05 01:17 | 38.47983 | -116.90307 | 27878 ft | 456 kts | 274° |
| 2026-05-05 01:17 | 38.48314 | -116.94343 | 27877 ft | 457 kts | 274° |
| 2026-05-05 01:17 | 38.48640 | -116.98384 | 27864 ft | 458 kts | 275° |
| 2026-05-05 01:18 | 38.48967 | -117.02447 | 27867 ft | 459 kts | 275° |
| 2026-05-05 01:18 | 38.49295 | -117.06514 | 27872 ft | 460 kts | 275° |
| 2026-05-05 01:18 | 38.49619 | -117.10583 | 27879 ft | 461 kts | 275° |
| 2026-05-05 01:18 | 38.49939 | -117.14660 | 27895 ft | 462 kts | 275° |
| 2026-05-05 01:19 | 38.50256 | -117.18747 | 27898 ft | 463 kts | 275° |
| 2026-05-05 01:19 | 38.50566 | -117.22805 | 27881 ft | 465 kts | 275° |
| 2026-05-05 01:19 | 38.50877 | -117.26910 | 27877 ft | 465 kts | 275° |
| 2026-05-05 01:19 | 38.51186 | -117.31026 | 27870 ft | 466 kts | 275° |
| 2026-05-05 01:20 | 38.51501 | -117.35146 | 27873 ft | 466 kts | 275° |
| 2026-05-05 01:20 | 38.51819 | -117.39286 | 27879 ft | 468 kts | 275° |
| 2026-05-05 01:20 | 38.52137 | -117.43430 | 27877 ft | 468 kts | 275° |
| 2026-05-05 01:20 | 38.52454 | -117.47564 | 27884 ft | 469 kts | 275° |
| 2026-05-05 01:21 | 38.52766 | -117.51710 | 27876 ft | 469 kts | 276° |
| 2026-05-05 01:21 | 38.53080 | -117.55855 | 27881 ft | 470 kts | 275° |
| 2026-05-05 01:21 | 38.53391 | -117.60012 | 27894 ft | 470 kts | 276° |
| 2026-05-05 01:21 | 38.53700 | -117.64148 | 27882 ft | 465 kts | 276° |
| 2026-05-05 01:22 | 38.53999 | -117.68192 | 27871 ft | 462 kts | 275° |
| 2026-05-05 01:22 | 38.54301 | -117.72264 | 27888 ft | 460 kts | 276° |
| 2026-05-05 01:22 | 38.54600 | -117.76330 | 27805 ft | 461 kts | 276° |
| 2026-05-05 01:22 | 38.54899 | -117.80405 | 27345 ft | 461 kts | 276° |
| 2026-05-05 01:23 | 38.55200 | -117.84471 | 26900 ft | 460 kts | 276° |
| 2026-05-05 01:23 | 38.55500 | -117.88555 | 26453 ft | 461 kts | 276° |
| 2026-05-05 01:23 | 38.55790 | -117.92637 | 26003 ft | 462 kts | 276° |
| 2026-05-05 01:23 | 38.56143 | -117.96715 | 25548 ft | 461 kts | 281° |
| 2026-05-05 01:24 | 38.57167 | -118.00571 | 25078 ft | 456 kts | 300° |
| 2026-05-05 01:24 | 38.59053 | -118.03769 | 24676 ft | 449 kts | 317° |
| 2026-05-05 01:24 | 38.61418 | -118.06334 | 24264 ft | 443 kts | 327° |
| 2026-05-05 01:24 | 38.63963 | -118.08506 | 23885 ft | 438 kts | 332° |
| 2026-05-05 01:25 | 38.66543 | -118.10467 | 23462 ft | 435 kts | 334° |
| 2026-05-05 01:25 | 38.69196 | -118.12389 | 23010 ft | 429 kts | 334° |
| 2026-05-05 01:25 | 38.71749 | -118.14214 | 22566 ft | 424 kts | 335° |
| 2026-05-05 01:25 | 38.73492 | -118.15451 | 22260 ft | 420 kts | 334° |
| 2026-05-05 01:26 | 38.76856 | -118.17857 | 21661 ft | 415 kts | 334° |
| 2026-05-05 01:26 | 38.79346 | -118.19644 | 21209 ft | 404 kts | 334° |
| 2026-05-05 01:26 | 38.81735 | -118.21359 | 20754 ft | 383 kts | 334° |
| 2026-05-05 01:26 | 38.84008 | -118.22989 | 20298 ft | 365 kts | 334° |
| 2026-05-05 01:27 | 38.86175 | -118.24543 | 19998 ft | 347 kts | 334° |
| 2026-05-05 01:27 | 38.88236 | -118.26025 | 19902 ft | 336 kts | 334° |
| 2026-05-05 01:27 | 38.90268 | -118.27484 | 19882 ft | 333 kts | 334° |
| 2026-05-05 01:27 | 38.92283 | -118.28932 | 19880 ft | 331 kts | 334° |
| 2026-05-05 01:28 | 38.94285 | -118.30372 | 19879 ft | 329 kts | 334° |
| 2026-05-05 01:28 | 38.96280 | -118.31810 | 19879 ft | 328 kts | 334° |
| 2026-05-05 01:28 | 38.98273 | -118.33248 | 19878 ft | 328 kts | 334° |
| 2026-05-05 01:28 | 39.00256 | -118.34684 | 19859 ft | 328 kts | 334° |
| 2026-05-05 01:29 | 39.02271 | -118.36141 | 19311 ft | 336 kts | 334° |
| 2026-05-05 01:29 | 39.03625 | -118.37130 | 18939 ft | 333 kts | 334° |
| 2026-05-05 01:29 | 39.05622 | -118.38543 | 18374 ft | 321 kts | 337° |
| 2026-05-05 01:29 | 39.07684 | -118.39518 | 17762 ft | 310 kts | 346° |
| 2026-05-05 01:30 | 39.09751 | -118.40176 | 17142 ft | 302 kts | 351° |
| 2026-05-05 01:30 | 39.11795 | -118.40705 | 16516 ft | 297 kts | 352° |
| 2026-05-05 01:30 | 39.13803 | -118.41175 | 15908 ft | 291 kts | 353° |
| 2026-05-05 01:30 | 39.15785 | -118.41621 | 15305 ft | 286 kts | 353° |
| 2026-05-05 01:31 | 39.17730 | -118.42052 | 14703 ft | 281 kts | 353° |
| 2026-05-05 01:31 | 39.19646 | -118.42473 | 14102 ft | 277 kts | 353° |
| 2026-05-05 01:31 | 39.21532 | -118.42885 | 13501 ft | 274 kts | 353° |
| 2026-05-05 01:31 | 39.23398 | -118.43288 | 12888 ft | 266 kts | 353° |
| 2026-05-05 01:32 | 39.25157 | -118.43670 | 12303 ft | 251 kts | 353° |
| 2026-05-05 01:32 | 39.26854 | -118.44040 | 11775 ft | 244 kts | 353° |
| 2026-05-05 01:32 | 39.28514 | -118.44396 | 11223 ft | 240 kts | 353° |
| 2026-05-05 01:32 | 39.30129 | -118.44730 | 10677 ft | 236 kts | 353° |
| 2026-05-05 01:33 | 39.31745 | -118.45057 | 10119 ft | 233 kts | 352° |
| 2026-05-05 01:33 | 39.33241 | -118.45800 | 9515 ft | 232 kts | 327° |
| 2026-05-05 01:33 | 39.34176 | -118.47474 | 8959 ft | 233 kts | 291° |
| 2026-05-05 01:33 | 39.34270 | -118.49536 | 8453 ft | 230 kts | 264° |
| 2026-05-05 01:34 | 39.33869 | -118.51537 | 7926 ft | 230 kts | 251° |
| 2026-05-05 01:34 | 39.33311 | -118.53460 | 7379 ft | 226 kts | 248° |
| 2026-05-05 01:34 | 39.32754 | -118.55268 | 7034 ft | 201 kts | 248° |
| 2026-05-05 01:34 | 39.32480 | -118.56837 | 7112 ft | 159 kts | 262° |
| 2026-05-05 01:35 | 39.32518 | -118.58260 | 7092 ft | 169 kts | 272° |
| 2026-05-05 01:35 | 39.32689 | -118.59829 | 6989 ft | 183 kts | 280° |
| 2026-05-05 01:35 | 39.33232 | -118.61378 | 6871 ft | 195 kts | 298° |
| 2026-05-05 01:35 | 39.34089 | -118.62762 | 6667 ft | 193 kts | 311° |
| 2026-05-05 01:36 | 39.35115 | -118.63825 | 6229 ft | 189 kts | 323° |
| 2026-05-05 01:36 | 39.36172 | -118.64728 | 5761 ft | 177 kts | 326° |
| 2026-05-05 01:36 | 39.37167 | -118.65612 | 5260 ft | 171 kts | 323° |
| 2026-05-05 01:36 | 39.38128 | -118.66485 | 4787 ft | 166 kts | 323° |
| 2026-05-05 01:37 | 39.39044 | -118.67316 | 4440 ft | 158 kts | 322° |
| 2026-05-05 01:37 | 39.39955 | -118.68158 | 4157 ft | 161 kts | 322° |
| 2026-05-05 01:37 | 39.40843 | -118.68959 | 3978 ft | 147 kts | 323° |
| 2026-05-05 01:37 | 39.41579 | -118.69625 | 3946 ft | 103 kts | 323° |
| 2026-05-05 01:38 | 39.41943 | -118.69959 | 3946 ft | 33 kts | 327° |
| 2026-05-05 01:38 | 39.42101 | -118.70093 | 3946 ft | 16 kts | 327° |
| 2026-05-05 01:38 | 39.42153 | -118.70136 | 3946 ft | 7 kts | 328° |
| 2026-05-05 01:38 | 39.42203 | -118.70197 | 3946 ft | 7 kts | 277° |
| 2026-05-05 01:39 | 39.42195 | -118.70235 | 3946 ft | 7 kts | 237° |
| 2026-05-05 01:39 | 39.42166 | -118.70292 | 3946 ft | 4 kts | 236° |
| 2026-05-05 01:39 | 39.42164 | -118.70294 | 3946 ft | 0 kts | 236° |
| 2026-05-05 01:39 | 39.42161 | -118.70301 | 3946 ft | 2 kts | 236° |
| 2026-05-05 01:40 | 39.42156 | -118.70310 | 3946 ft | 2 kts | 234° |
| 2026-05-05 01:40 | 39.42132 | -118.70353 | 3946 ft | 15 kts | 234° |
| 2026-05-05 01:40 | 39.42067 | -118.70471 | 3946 ft | 14 kts | 235° |
| 2026-05-05 01:40 | 39.42047 | -118.70548 | 3946 ft | 6 kts | 287° |
| 2026-05-05 01:41 | 39.42073 | -118.70636 | 3946 ft | 12 kts | 295° |
| 2026-05-05 01:41 | 39.42100 | -118.70711 | 3946 ft | 7 kts | 290° |
| 2026-05-05 01:41 | 39.42091 | -118.70768 | 3946 ft | 7 kts | 234° |
| 2026-05-05 01:41 | 39.42057 | -118.70828 | 3946 ft | 7 kts | 238° |
| 2026-05-05 01:42 | 39.42072 | -118.70891 | 3946 ft | 8 kts | 326° |
| 2026-05-05 01:42 | 39.42102 | -118.70918 | 3946 ft | 5 kts | 324° |
| 2026-05-05 01:42 | 39.42124 | -118.70938 | 3946 ft | 0 kts | 325° |